UAE526 OMDB-VOHS
Flight info
| Callsign | UAE526 |
|---|---|
| Flight time | N/A |
| Altitude | 39000 |
| Route | IVURO M677 LALDO B505 NADSO A777 VAXIM P307 PARAR N571 SUGID DCT AROTA DCT BBB W28 PONIP NAMSA8 |
| Aircraft | B77W/H-SDE1E2E3FGHIJ2J3J4J5M1RWXY/LB1D1 |
Departure
| Time | 2026-05-06 11:22 |
|---|---|
| Airport | Dubai International Airport (OMDB) |
Arrival
| Time | N/A |
|---|---|
| Airport | Rajiv Gandhi International Airport (VOHS) |
| Time | Latitude | Longitude | Altitude | Speed | Heading |
|---|---|---|---|---|---|
| 2026-05-06 10:58 | 25.24394 | 55.37292 | 29 ft | 0 kts | 211° |
| 2026-05-06 11:10 | 25.24405 | 55.37299 | 32 ft | 2 kts | 209° |
| 2026-05-06 11:10 | 25.24419 | 55.37308 | 26 ft | 2 kts | 209° |
| 2026-05-06 11:11 | 25.24434 | 55.37316 | 25 ft | 2 kts | 206° |
| 2026-05-06 11:11 | 25.24449 | 55.37324 | 25 ft | 2 kts | 201° |
| 2026-05-06 11:11 | 25.24464 | 55.37330 | 25 ft | 2 kts | 188° |
| 2026-05-06 11:11 | 25.24481 | 55.37328 | 26 ft | 2 kts | 142° |
| 2026-05-06 11:12 | 25.24489 | 55.37320 | 24 ft | 1 kts | 122° |
| 2026-05-06 11:12 | 25.24489 | 55.37319 | 24 ft | 0 kts | 122° |
| 2026-05-06 11:14 | 25.24482 | 55.37332 | 25 ft | 10 kts | 122° |
| 2026-05-06 11:14 | 25.24440 | 55.37417 | 27 ft | 20 kts | 109° |
| 2026-05-06 11:14 | 25.24424 | 55.37583 | 27 ft | 21 kts | 102° |
| 2026-05-06 11:15 | 25.24385 | 55.37711 | 28 ft | 10 kts | 87° |
| 2026-05-06 11:15 | 25.24401 | 55.37741 | 29 ft | 0 kts | 48° |
| 2026-05-06 11:20 | 25.24436 | 55.37778 | 31 ft | 21 kts | 38° |
| 2026-05-06 11:20 | 25.24563 | 55.37875 | 33 ft | 22 kts | 33° |
| 2026-05-06 11:20 | 25.24703 | 55.37976 | 31 ft | 24 kts | 33° |
| 2026-05-06 11:21 | 25.24819 | 55.37992 | 34 ft | 14 kts | 316° |
| 2026-05-06 11:21 | 25.24933 | 55.37800 | 35 ft | 60 kts | 301° |
| 2026-05-06 11:21 | 25.25278 | 55.37178 | 36 ft | 128 kts | 301° |
| 2026-05-06 11:21 | 25.25841 | 55.36154 | 45 ft | 181 kts | 301° |
| 2026-05-06 11:22 | 25.26516 | 55.34938 | 626 ft | 186 kts | 303° |
| 2026-05-06 11:22 | 25.27186 | 55.33693 | 1328 ft | 190 kts | 304° |
| 2026-05-06 11:22 | 25.27889 | 55.32414 | 2050 ft | 202 kts | 302° |
| 2026-05-06 11:22 | 25.28653 | 55.31054 | 2586 ft | 220 kts | 302° |
| 2026-05-06 11:23 | 25.29621 | 55.29655 | 3047 ft | 241 kts | 324° |
| 2026-05-06 11:23 | 25.31166 | 55.29020 | 3775 ft | 239 kts | 357° |
| 2026-05-06 11:23 | 25.32774 | 55.29340 | 4607 ft | 236 kts | 30° |
| 2026-05-06 11:23 | 25.33968 | 55.30511 | 5584 ft | 226 kts | 47° |
| 2026-05-06 11:24 | 25.35433 | 55.31320 | 6124 ft | 255 kts | 9° |
| 2026-05-06 11:24 | 25.37300 | 55.31271 | 6432 ft | 283 kts | 357° |
| 2026-05-06 11:24 | 25.39289 | 55.31079 | 7187 ft | 290 kts | 353° |
| 2026-05-06 11:24 | 25.41308 | 55.30979 | 7978 ft | 294 kts | 13° |
| 2026-05-06 11:25 | 25.43094 | 55.31988 | 8973 ft | 289 kts | 47° |
| 2026-05-06 11:25 | 25.44270 | 55.33762 | 9946 ft | 287 kts | 59° |
| 2026-05-06 11:25 | 25.45399 | 55.35643 | 10527 ft | 303 kts | 60° |
| 2026-05-06 11:25 | 25.46419 | 55.37815 | 10749 ft | 332 kts | 63° |
| 2026-05-06 11:26 | 25.47646 | 55.40120 | 10994 ft | 362 kts | 57° |
| 2026-05-06 11:26 | 25.49122 | 55.42446 | 11759 ft | 372 kts | 54° |
| 2026-05-06 11:26 | 25.50687 | 55.44761 | 12624 ft | 378 kts | 53° |
| 2026-05-06 11:26 | 25.51972 | 55.47305 | 13303 ft | 386 kts | 71° |
| 2026-05-06 11:27 | 25.52532 | 55.50242 | 14082 ft | 393 kts | 83° |
| 2026-05-06 11:27 | 25.52652 | 55.53284 | 14917 ft | 398 kts | 93° |
| 2026-05-06 11:27 | 25.52225 | 55.56333 | 15744 ft | 403 kts | 102° |
| 2026-05-06 11:27 | 25.51591 | 55.59383 | 16550 ft | 410 kts | 103° |
| 2026-05-06 11:28 | 25.50897 | 55.62470 | 17358 ft | 417 kts | 104° |
| 2026-05-06 11:28 | 25.50195 | 55.65576 | 18144 ft | 423 kts | 104° |
| 2026-05-06 11:28 | 25.49488 | 55.68759 | 18876 ft | 428 kts | 103° |
| 2026-05-06 11:28 | 25.48789 | 55.71985 | 19517 ft | 437 kts | 103° |
| 2026-05-06 11:29 | 25.48088 | 55.75285 | 20229 ft | 441 kts | 103° |
| 2026-05-06 11:29 | 25.47407 | 55.78526 | 21075 ft | 443 kts | 103° |
| 2026-05-06 11:29 | 25.46710 | 55.81867 | 21770 ft | 449 kts | 103° |
| 2026-05-06 11:29 | 25.46003 | 55.85261 | 22445 ft | 455 kts | 103° |
| 2026-05-06 11:30 | 25.45287 | 55.88696 | 23152 ft | 460 kts | 103° |
| 2026-05-06 11:30 | 25.44563 | 55.92165 | 23746 ft | 465 kts | 103° |
| 2026-05-06 11:30 | 25.43828 | 55.95679 | 24271 ft | 471 kts | 103° |
| 2026-05-06 11:30 | 25.43083 | 55.99236 | 24740 ft | 476 kts | 103° |
| 2026-05-06 11:31 | 25.42330 | 56.02821 | 24780 ft | 481 kts | 103° |
| 2026-05-06 11:31 | 25.41574 | 56.06416 | 24790 ft | 479 kts | 103° |
| 2026-05-06 11:31 | 25.40818 | 56.10009 | 24796 ft | 478 kts | 103° |
| 2026-05-06 11:31 | 25.40065 | 56.13584 | 24800 ft | 478 kts | 103° |
| 2026-05-06 11:32 | 25.39319 | 56.17122 | 24955 ft | 481 kts | 103° |
| 2026-05-06 11:32 | 25.38552 | 56.20751 | 25508 ft | 485 kts | 103° |
| 2026-05-06 11:32 | 25.37780 | 56.24400 | 26077 ft | 490 kts | 103° |